Liberty Center, Indiana
Current Conditions -  °F | °C
As of 1:54 PM on Friday 31 Oct 2014 (Local Time) from KFWA Reporting Station
Broken Clouds Broken Clouds  
Wind Chill: 38°   Ceiling: 1900
Heat Index: 43°   Visibility: 10mi
Dew Point: 36°   Wind: 8mph
Humidity: 76%   Direction: 310°NW
Pressure: 29.92"   Gusts: NA
Location:  40.7°N, 85.28°W
Report Text: KFWA 311754Z 31007KT 10SM BKN019 BKN090 BKN250 06/02 A2992 RMK AO2 SLP137 60008 T00610022 10061 20039 58011
Loading
Personal Weather Stations






























Interactive Weather Map
Tropical Storm Tracking
New forecast layout! Learn more

10-Day Weather Forecast

Advertisements
Track Severe Weather on mobile